sensor_id;sensor_type;location;lat;lon;timestamp;temperature;humidity
37232;DHT22;23125;48.156;15.954;2023-02-28T00:00:26;5.60;48.20
37232;DHT22;23125;48.156;15.954;2023-02-28T00:02:53;5.60;48.20
37232;DHT22;23125;48.156;15.954;2023-02-28T00:05:22;5.60;48.30
37232;DHT22;23125;48.156;15.954;2023-02-28T00:07:49;5.60;48.30
37232;DHT22;23125;48.156;15.954;2023-02-28T00:10:20;5.60;48.30
37232;DHT22;23125;48.156;15.954;2023-02-28T00:12:51;5.50;48.30
37232;DHT22;23125;48.156;15.954;2023-02-28T00:15:17;5.50;48.50
37232;DHT22;23125;48.156;15.954;2023-02-28T00:17:44;5.50;48.40
37232;DHT22;23125;48.156;15.954;2023-02-28T00:20:11;5.40;48.40
37232;DHT22;23125;48.156;15.954;2023-02-28T00:22:40;5.40;48.50
37232;DHT22;23125;48.156;15.954;2023-02-28T00:25:07;5.30;48.50
37232;DHT22;23125;48.156;15.954;2023-02-28T00:27:35;5.30;48.50
37232;DHT22;23125;48.156;15.954;2023-02-28T00:30:01;5.30;48.60
37232;DHT22;23125;48.156;15.954;2023-02-28T00:32:27;5.20;48.50
37232;DHT22;23125;48.156;15.954;2023-02-28T00:34:53;5.20;48.40
37232;DHT22;23125;48.156;15.954;2023-02-28T00:37:19;5.20;48.60
37232;DHT22;23125;48.156;15.954;2023-02-28T00:39:45;5.20;48.60
37232;DHT22;23125;48.156;15.954;2023-02-28T00:42:11;5.10;48.60
37232;DHT22;23125;48.156;15.954;2023-02-28T00:44:36;5.10;48.50
37232;DHT22;23125;48.156;15.954;2023-02-28T00:47:02;5.00;48.30
37232;DHT22;23125;48.156;15.954;2023-02-28T00:49:28;5.00;48.50
37232;DHT22;23125;48.156;15.954;2023-02-28T00:51:55;4.90;48.60
37232;DHT22;23125;48.156;15.954;2023-02-28T00:54:22;4.90;48.70
37232;DHT22;23125;48.156;15.954;2023-02-28T00:56:49;4.90;48.60
37232;DHT22;23125;48.156;15.954;2023-02-28T00:59:17;4.80;48.80
37232;DHT22;23125;48.156;15.954;2023-02-28T01:01:44;4.80;48.90
37232;DHT22;23125;48.156;15.954;2023-02-28T01:04:11;4.80;49.00
37232;DHT22;23125;48.156;15.954;2023-02-28T01:06:37;4.80;49.00
37232;DHT22;23125;48.156;15.954;2023-02-28T01:09:05;4.80;49.00
37232;DHT22;23125;48.156;15.954;2023-02-28T01:11:31;4.80;49.10
37232;DHT22;23125;48.156;15.954;2023-02-28T01:13:58;4.80;49.20
37232;DHT22;23125;48.156;15.954;2023-02-28T01:16:25;4.80;49.20
37232;DHT22;23125;48.156;15.954;2023-02-28T01:18:50;4.70;49.70
37232;DHT22;23125;48.156;15.954;2023-02-28T01:21:18;4.80;49.20
37232;DHT22;23125;48.156;15.954;2023-02-28T01:23:45;4.80;49.30
37232;DHT22;23125;48.156;15.954;2023-02-28T01:26:22;4.80;49.30
37232;DHT22;23125;48.156;15.954;2023-02-28T01:28:50;4.80;49.40
37232;DHT22;23125;48.156;15.954;2023-02-28T01:31:17;4.70;49.30
37232;DHT22;23125;48.156;15.954;2023-02-28T01:33:44;4.80;49.50
37232;DHT22;23125;48.156;15.954;2023-02-28T01:36:17;4.70;49.50
37232;DHT22;23125;48.156;15.954;2023-02-28T01:38:44;4.70;49.60
37232;DHT22;23125;48.156;15.954;2023-02-28T01:41:17;4.70;49.60
37232;DHT22;23125;48.156;15.954;2023-02-28T01:46:10;4.70;49.70
37232;DHT22;23125;48.156;15.954;2023-02-28T01:48:40;4.70;49.70
37232;DHT22;23125;48.156;15.954;2023-02-28T01:51:13;4.70;49.70
37232;DHT22;23125;48.156;15.954;2023-02-28T01:53:49;4.70;49.80
37232;DHT22;23125;48.156;15.954;2023-02-28T01:56:22;4.60;49.90
37232;DHT22;23125;48.156;15.954;2023-02-28T01:58:51;4.60;49.90
37232;DHT22;23125;48.156;15.954;2023-02-28T02:01:19;4.70;50.00
37232;DHT22;23125;48.156;15.954;2023-02-28T02:03:53;4.70;50.00
37232;DHT22;23125;48.156;15.954;2023-02-28T02:06:43;4.60;50.00
37232;DHT22;23125;48.156;15.954;2023-02-28T02:09:10;4.60;50.00
37232;DHT22;23125;48.156;15.954;2023-02-28T02:11:36;4.70;50.00
37232;DHT22;23125;48.156;15.954;2023-02-28T02:17:30;4.60;50.00
37232;DHT22;23125;48.156;15.954;2023-02-28T02:33:15;4.50;50.10
37232;DHT22;23125;48.156;15.954;2023-02-28T02:35:53;4.50;50.20
37232;DHT22;23125;48.156;15.954;2023-02-28T02:41:20;4.50;50.20
37232;DHT22;23125;48.156;15.954;2023-02-28T02:44:10;4.50;50.30
37232;DHT22;23125;48.156;15.954;2023-02-28T02:46:42;4.50;50.30
37232;DHT22;23125;48.156;15.954;2023-02-28T02:49:15;4.40;50.20
37232;DHT22;23125;48.156;15.954;2023-02-28T02:51:41;4.40;50.20
37232;DHT22;23125;48.156;15.954;2023-02-28T02:54:27;4.40;50.20
37232;DHT22;23125;48.156;15.954;2023-02-28T02:56:57;4.40;50.30
37232;DHT22;23125;48.156;15.954;2023-02-28T02:59:24;4.30;50.30
37232;DHT22;23125;48.156;15.954;2023-02-28T03:01:53;4.30;50.30
37232;DHT22;23125;48.156;15.954;2023-02-28T03:04:22;4.30;50.30
37232;DHT22;23125;48.156;15.954;2023-02-28T03:06:51;4.30;50.40
37232;DHT22;23125;48.156;15.954;2023-02-28T03:09:24;4.30;50.40
37232;DHT22;23125;48.156;15.954;2023-02-28T03:11:52;4.20;50.40
37232;DHT22;23125;48.156;15.954;2023-02-28T03:30:14;4.10;50.60
37232;DHT22;23125;48.156;15.954;2023-02-28T03:32:50;4.10;50.60
37232;DHT22;23125;48.156;15.954;2023-02-28T03:35:24;4.10;50.60
37232;DHT22;23125;48.156;15.954;2023-02-28T03:38:00;4.10;50.70
37232;DHT22;23125;48.156;15.954;2023-02-28T03:40:32;4.00;50.60
37232;DHT22;23125;48.156;15.954;2023-02-28T03:43:03;4.00;50.60
37232;DHT22;23125;48.156;15.954;2023-02-28T03:45:33;4.00;50.60
37232;DHT22;23125;48.156;15.954;2023-02-28T03:48:28;4.00;50.60
37232;DHT22;23125;48.156;15.954;2023-02-28T03:50:54;3.90;50.60
37232;DHT22;23125;48.156;15.954;2023-02-28T03:53:29;3.90;50.70
37232;DHT22;23125;48.156;15.954;2023-02-28T03:59:14;3.80;50.70
37232;DHT22;23125;48.156;15.954;2023-02-28T04:01:45;3.80;50.70
37232;DHT22;23125;48.156;15.954;2023-02-28T04:04:12;3.80;50.70
37232;DHT22;23125;48.156;15.954;2023-02-28T04:06:39;3.70;50.60
37232;DHT22;23125;48.156;15.954;2023-02-28T04:09:08;3.70;50.70
37232;DHT22;23125;48.156;15.954;2023-02-28T04:11:49;3.60;50.60
37232;DHT22;23125;48.156;15.954;2023-02-28T04:14:17;3.60;50.60
37232;DHT22;23125;48.156;15.954;2023-02-28T04:16:44;3.60;50.50
37232;DHT22;23125;48.156;15.954;2023-02-28T04:19:11;3.50;50.60
37232;DHT22;23125;48.156;15.954;2023-02-28T04:21:40;3.50;50.70
37232;DHT22;23125;48.156;15.954;2023-02-28T04:24:12;3.40;50.60
37232;DHT22;23125;48.156;15.954;2023-02-28T04:26:43;3.40;50.70
37232;DHT22;23125;48.156;15.954;2023-02-28T04:29:11;3.30;50.70
37232;DHT22;23125;48.156;15.954;2023-02-28T04:31:38;3.30;50.80
37232;DHT22;23125;48.156;15.954;2023-02-28T04:34:04;3.20;50.80
37232;DHT22;23125;48.156;15.954;2023-02-28T04:36:31;3.20;50.80
37232;DHT22;23125;48.156;15.954;2023-02-28T04:38:57;3.20;50.80
37232;DHT22;23125;48.156;15.954;2023-02-28T04:41:23;3.10;50.80
37232;DHT22;23125;48.156;15.954;2023-02-28T04:43:51;3.10;50.90
37232;DHT22;23125;48.156;15.954;2023-02-28T04:46:17;3.10;50.90
37232;DHT22;23125;48.156;15.954;2023-02-28T04:48:44;3.00;50.90
37232;DHT22;23125;48.156;15.954;2023-02-28T04:51:12;3.00;51.00
37232;DHT22;23125;48.156;15.954;2023-02-28T04:53:40;2.90;51.00
37232;DHT22;23125;48.156;15.954;2023-02-28T04:56:07;2.90;51.00
37232;DHT22;23125;48.156;15.954;2023-02-28T04:58:34;2.90;51.00
37232;DHT22;23125;48.156;15.954;2023-02-28T05:01:27;2.80;51.00
37232;DHT22;23125;48.156;15.954;2023-02-28T05:03:56;2.80;51.00
37232;DHT22;23125;48.156;15.954;2023-02-28T05:06:24;2.80;51.00
37232;DHT22;23125;48.156;15.954;2023-02-28T05:08:51;2.70;51.10
37232;DHT22;23125;48.156;15.954;2023-02-28T05:13:49;2.70;51.20
37232;DHT22;23125;48.156;15.954;2023-02-28T05:16:16;2.70;51.20
37232;DHT22;23125;48.156;15.954;2023-02-28T05:18:42;2.60;51.10
37232;DHT22;23125;48.156;15.954;2023-02-28T05:23:53;2.50;51.20
37232;DHT22;23125;48.156;15.954;2023-02-28T05:26:19;2.50;51.20
37232;DHT22;23125;48.156;15.954;2023-02-28T05:28:45;2.50;51.20
37232;DHT22;23125;48.156;15.954;2023-02-28T05:31:12;2.40;51.20
37232;DHT22;23125;48.156;15.954;2023-02-28T05:33:38;2.40;51.20
37232;DHT22;23125;48.156;15.954;2023-02-28T05:36:06;2.40;51.30
37232;DHT22;23125;48.156;15.954;2023-02-28T05:38:32;2.40;51.30
37232;DHT22;23125;48.156;15.954;2023-02-28T05:40:58;2.40;51.40
37232;DHT22;23125;48.156;15.954;2023-02-28T05:43:24;2.30;51.40
37232;DHT22;23125;48.156;15.954;2023-02-28T05:45:50;2.30;51.40
37232;DHT22;23125;48.156;15.954;2023-02-28T05:48:15;2.30;51.60
37232;DHT22;23125;48.156;15.954;2023-02-28T05:50:42;2.30;51.50
37232;DHT22;23125;48.156;15.954;2023-02-28T05:53:10;2.20;51.50
37232;DHT22;23125;48.156;15.954;2023-02-28T05:55:36;2.20;51.60
37232;DHT22;23125;48.156;15.954;2023-02-28T05:58:03;2.20;51.70
37232;DHT22;23125;48.156;15.954;2023-02-28T06:00:29;2.20;51.70
37232;DHT22;23125;48.156;15.954;2023-02-28T06:02:55;2.20;51.80
37232;DHT22;23125;48.156;15.954;2023-02-28T06:05:27;2.20;51.80
37232;DHT22;23125;48.156;15.954;2023-02-28T06:07:53;2.20;51.80
37232;DHT22;23125;48.156;15.954;2023-02-28T06:10:19;2.20;51.90
37232;DHT22;23125;48.156;15.954;2023-02-28T06:12:46;2.20;52.00
37232;DHT22;23125;48.156;15.954;2023-02-28T06:15:14;2.20;52.10
37232;DHT22;23125;48.156;15.954;2023-02-28T06:17:41;2.20;52.30
37232;DHT22;23125;48.156;15.954;2023-02-28T06:20:08;2.20;52.40
37232;DHT22;23125;48.156;15.954;2023-02-28T06:22:36;2.30;52.60
37232;DHT22;23125;48.156;15.954;2023-02-28T06:25:03;2.30;52.70
37232;DHT22;23125;48.156;15.954;2023-02-28T06:27:31;2.30;52.80
37232;DHT22;23125;48.156;15.954;2023-02-28T06:29:57;2.40;52.90
37232;DHT22;23125;48.156;15.954;2023-02-28T06:32:23;2.40;53.00
37232;DHT22;23125;48.156;15.954;2023-02-28T06:34:49;2.40;53.10
37232;DHT22;23125;48.156;15.954;2023-02-28T06:37:16;2.50;53.20
37232;DHT22;23125;48.156;15.954;2023-02-28T06:39:42;2.50;53.20
37232;DHT22;23125;48.156;15.954;2023-02-28T06:42:08;2.60;53.30
37232;DHT22;23125;48.156;15.954;2023-02-28T06:44:34;2.60;53.40
37232;DHT22;23125;48.156;15.954;2023-02-28T06:47:05;2.70;53.70
37232;DHT22;23125;48.156;15.954;2023-02-28T06:49:32;2.80;53.90
37232;DHT22;23125;48.156;15.954;2023-02-28T06:51:59;2.80;53.90
37232;DHT22;23125;48.156;15.954;2023-02-28T06:54:25;2.90;54.10
37232;DHT22;23125;48.156;15.954;2023-02-28T06:56:51;3.00;54.10
37232;DHT22;23125;48.156;15.954;2023-02-28T06:59:17;3.00;54.20
37232;DHT22;23125;48.156;15.954;2023-02-28T07:01:43;3.20;55.20
37232;DHT22;23125;48.156;15.954;2023-02-28T07:04:09;3.50;55.90
37232;DHT22;23125;48.156;15.954;2023-02-28T07:06:35;3.70;56.70
37232;DHT22;23125;48.156;15.954;2023-02-28T07:09:01;4.10;57.30
37232;DHT22;23125;48.156;15.954;2023-02-28T07:11:27;4.30;57.20
37232;DHT22;23125;48.156;15.954;2023-02-28T07:13:54;4.60;57.50
37232;DHT22;23125;48.156;15.954;2023-02-28T07:16:21;5.00;57.50
37232;DHT22;23125;48.156;15.954;2023-02-28T07:18:48;5.20;57.30
37232;DHT22;23125;48.156;15.954;2023-02-28T07:21:15;5.50;57.10
37232;DHT22;23125;48.156;15.954;2023-02-28T07:23:41;5.60;56.00
37232;DHT22;23125;48.156;15.954;2023-02-28T07:26:11;5.80;55.30
37232;DHT22;23125;48.156;15.954;2023-02-28T07:28:41;5.90;56.00
37232;DHT22;23125;48.156;15.954;2023-02-28T07:31:11;6.30;57.00
37232;DHT22;23125;48.156;15.954;2023-02-28T07:33:40;6.60;56.90
37232;DHT22;23125;48.156;15.954;2023-02-28T07:36:17;6.90;56.90
37232;DHT22;23125;48.156;15.954;2023-02-28T07:38:46;7.20;56.50
37232;DHT22;23125;48.156;15.954;2023-02-28T07:41:17;7.50;57.40
37232;DHT22;23125;48.156;15.954;2023-02-28T07:43:44;7.90;57.20
37232;DHT22;23125;48.156;15.954;2023-02-28T07:46:12;8.20;56.50
37232;DHT22;23125;48.156;15.954;2023-02-28T07:48:41;8.40;55.90
37232;DHT22;23125;48.156;15.954;2023-02-28T07:51:07;8.70;55.50
37232;DHT22;23125;48.156;15.954;2023-02-28T07:53:33;8.80;54.80
37232;DHT22;23125;48.156;15.954;2023-02-28T07:56:01;9.10;54.60
37232;DHT22;23125;48.156;15.954;2023-02-28T07:58:28;9.30;54.50
37232;DHT22;23125;48.156;15.954;2023-02-28T08:00:54;9.60;55.00
37232;DHT22;23125;48.156;15.954;2023-02-28T08:03:22;9.80;54.50
37232;DHT22;23125;48.156;15.954;2023-02-28T08:05:49;10.10;54.30
37232;DHT22;23125;48.156;15.954;2023-02-28T08:08:16;10.20;52.90
37232;DHT22;23125;48.156;15.954;2023-02-28T08:10:42;10.20;51.80
37232;DHT22;23125;48.156;15.954;2023-02-28T08:13:08;10.20;50.90
37232;DHT22;23125;48.156;15.954;2023-02-28T08:15:35;10.20;51.10
37232;DHT22;23125;48.156;15.954;2023-02-28T08:18:02;10.30;51.60
37232;DHT22;23125;48.156;15.954;2023-02-28T08:20:28;10.60;52.60
37232;DHT22;23125;48.156;15.954;2023-02-28T08:22:54;10.90;53.10
37232;DHT22;23125;48.156;15.954;2023-02-28T08:25:20;11.20;52.30
37232;DHT22;23125;48.156;15.954;2023-02-28T08:27:46;11.30;51.40
37232;DHT22;23125;48.156;15.954;2023-02-28T08:30:14;11.40;51.00
37232;DHT22;23125;48.156;15.954;2023-02-28T08:32:40;11.50;50.20
37232;DHT22;23125;48.156;15.954;2023-02-28T08:35:07;11.50;50.00
37232;DHT22;23125;48.156;15.954;2023-02-28T08:37:35;11.50;49.10
37232;DHT22;23125;48.156;15.954;2023-02-28T08:40:01;11.40;48.20
37232;DHT22;23125;48.156;15.954;2023-02-28T08:42:26;11.30;48.00
37232;DHT22;23125;48.156;15.954;2023-02-28T08:44:52;11.30;48.40
37232;DHT22;23125;48.156;15.954;2023-02-28T08:47:19;11.20;48.00
37232;DHT22;23125;48.156;15.954;2023-02-28T08:49:45;11.20;48.40
37232;DHT22;23125;48.156;15.954;2023-02-28T08:52:10;11.40;49.40
37232;DHT22;23125;48.156;15.954;2023-02-28T08:54:36;11.60;49.40
37232;DHT22;23125;48.156;15.954;2023-02-28T08:57:03;11.60;48.70
37232;DHT22;23125;48.156;15.954;2023-02-28T08:59:29;11.70;48.40
37232;DHT22;23125;48.156;15.954;2023-02-28T09:01:55;11.70;48.10
37232;DHT22;23125;48.156;15.954;2023-02-28T09:04:21;11.70;47.60
37232;DHT22;23125;48.156;15.954;2023-02-28T09:06:47;11.80;48.10
37232;DHT22;23125;48.156;15.954;2023-02-28T09:09:15;11.90;47.80
37232;DHT22;23125;48.156;15.954;2023-02-28T09:11:40;11.80;46.40
37232;DHT22;23125;48.156;15.954;2023-02-28T09:14:06;11.80;46.50
37232;DHT22;23125;48.156;15.954;2023-02-28T09:16:34;11.70;46.10
37232;DHT22;23125;48.156;15.954;2023-02-28T09:19:00;11.60;45.70
37232;DHT22;23125;48.156;15.954;2023-02-28T09:21:27;11.50;46.00
37232;DHT22;23125;48.156;15.954;2023-02-28T09:23:53;11.50;46.30
37232;DHT22;23125;48.156;15.954;2023-02-28T09:26:25;11.50;46.20
37232;DHT22;23125;48.156;15.954;2023-02-28T09:28:52;11.40;45.70
37232;DHT22;23125;48.156;15.954;2023-02-28T09:31:22;11.40;45.50
37232;DHT22;23125;48.156;15.954;2023-02-28T09:33:50;11.30;45.00
37232;DHT22;23125;48.156;15.954;2023-02-28T09:36:16;11.30;45.30
37232;DHT22;23125;48.156;15.954;2023-02-28T09:38:42;11.20;45.20
37232;DHT22;23125;48.156;15.954;2023-02-28T09:41:21;11.10;45.30
37232;DHT22;23125;48.156;15.954;2023-02-28T09:43:57;11.00;44.60
37232;DHT22;23125;48.156;15.954;2023-02-28T09:49:11;10.80;44.40
37232;DHT22;23125;48.156;15.954;2023-02-28T09:51:58;10.70;44.70
37232;DHT22;23125;48.156;15.954;2023-02-28T09:54:29;10.70;45.00
37232;DHT22;23125;48.156;15.954;2023-02-28T09:57:04;10.80;45.00
37232;DHT22;23125;48.156;15.954;2023-02-28T10:00:42;10.70;45.00
37232;DHT22;23125;48.156;15.954;2023-02-28T10:03:06;10.80;45.50
37232;DHT22;23125;48.156;15.954;2023-02-28T10:05:52;10.80;45.30
37232;DHT22;23125;48.156;15.954;2023-02-28T10:08:28;10.80;45.30
37232;DHT22;23125;48.156;15.954;2023-02-28T10:10:57;10.90;45.70
37232;DHT22;23125;48.156;15.954;2023-02-28T10:16:03;11.10;45.60
37232;DHT22;23125;48.156;15.954;2023-02-28T10:19:19;11.20;45.40
37232;DHT22;23125;48.156;15.954;2023-02-28T10:21:40;11.20;45.10
37232;DHT22;23125;48.156;15.954;2023-02-28T10:24:28;11.30;45.10
37232;DHT22;23125;48.156;15.954;2023-02-28T10:27:00;11.30;44.00
37232;DHT22;23125;48.156;15.954;2023-02-28T10:29:28;11.30;43.80
37232;DHT22;23125;48.156;15.954;2023-02-28T10:31:55;11.30;44.30
37232;DHT22;23125;48.156;15.954;2023-02-28T10:34:21;11.50;44.80
37232;DHT22;23125;48.156;15.954;2023-02-28T10:36:48;11.60;44.90
37232;DHT22;23125;48.156;15.954;2023-02-28T10:39:42;11.70;44.60
37232;DHT22;23125;48.156;15.954;2023-02-28T10:42:29;11.90;44.90
37232;DHT22;23125;48.156;15.954;2023-02-28T10:47:34;12.20;43.90
37232;DHT22;23125;48.156;15.954;2023-02-28T10:50:02;12.30;43.30
37232;DHT22;23125;48.156;15.954;2023-02-28T10:52:39;12.30;43.00
37232;DHT22;23125;48.156;15.954;2023-02-28T10:55:23;12.30;43.10
37232;DHT22;23125;48.156;15.954;2023-02-28T10:57:51;12.40;43.10
37232;DHT22;23125;48.156;15.954;2023-02-28T11:00:24;12.50;43.60
37232;DHT22;23125;48.156;15.954;2023-02-28T11:02:51;12.60;42.90
37232;DHT22;23125;48.156;15.954;2023-02-28T11:07:56;12.50;41.50
37232;DHT22;23125;48.156;15.954;2023-02-28T11:10:26;12.60;41.80
37232;DHT22;23125;48.156;15.954;2023-02-28T11:12:57;12.50;41.40
37232;DHT22;23125;48.156;15.954;2023-02-28T11:15:32;12.50;41.30
37232;DHT22;23125;48.156;15.954;2023-02-28T11:20:50;12.30;39.90
37232;DHT22;23125;48.156;15.954;2023-02-28T11:23:18;12.20;40.10
37232;DHT22;23125;48.156;15.954;2023-02-28T11:25:54;12.10;40.20
37232;DHT22;23125;48.156;15.954;2023-02-28T11:33:52;11.90;40.50
37232;DHT22;23125;48.156;15.954;2023-02-28T11:36:28;11.80;40.50
37232;DHT22;23125;48.156;15.954;2023-02-28T11:38:57;11.70;40.00
37232;DHT22;23125;48.156;15.954;2023-02-28T11:47:31;11.50;40.30
37232;DHT22;23125;48.156;15.954;2023-02-28T11:52:52;11.50;40.80
37232;DHT22;23125;48.156;15.954;2023-02-28T11:56:03;11.40;40.30
37232;DHT22;23125;48.156;15.954;2023-02-28T11:58:55;11.50;41.30
37232;DHT22;23125;48.156;15.954;2023-02-28T12:07:08;12.00;41.60
37232;DHT22;23125;48.156;15.954;2023-02-28T12:10:00;12.10;41.10
37232;DHT22;23125;48.156;15.954;2023-02-28T12:13:00;12.20;40.80
37232;DHT22;23125;48.156;15.954;2023-02-28T12:23:50;11.60;38.80
37232;DHT22;23125;48.156;15.954;2023-02-28T12:32:04;11.00;38.50
37232;DHT22;23125;48.156;15.954;2023-02-28T12:34:38;10.80;38.60
37232;DHT22;23125;48.156;15.954;2023-02-28T12:37:08;10.60;38.80
37232;DHT22;23125;48.156;15.954;2023-02-28T12:39:40;10.50;39.30
37232;DHT22;23125;48.156;15.954;2023-02-28T12:42:19;10.40;39.60
37232;DHT22;23125;48.156;15.954;2023-02-28T12:44:54;10.30;39.70
37232;DHT22;23125;48.156;15.954;2023-02-28T12:47:22;10.30;39.90
37232;DHT22;23125;48.156;15.954;2023-02-28T12:49:58;10.30;40.10
37232;DHT22;23125;48.156;15.954;2023-02-28T12:55:15;10.20;40.10
37232;DHT22;23125;48.156;15.954;2023-02-28T13:00:32;10.20;40.10
37232;DHT22;23125;48.156;15.954;2023-02-28T13:03:20;10.10;40.10
37232;DHT22;23125;48.156;15.954;2023-02-28T13:06:05;10.10;40.00
37232;DHT22;23125;48.156;15.954;2023-02-28T13:09:02;10.00;40.00
37232;DHT22;23125;48.156;15.954;2023-02-28T13:19:22;9.90;40.60
37232;DHT22;23125;48.156;15.954;2023-02-28T13:21:50;9.90;40.70
37232;DHT22;23125;48.156;15.954;2023-02-28T13:24:39;9.90;40.70
37232;DHT22;23125;48.156;15.954;2023-02-28T13:29:38;9.90;40.80
37232;DHT22;23125;48.156;15.954;2023-02-28T13:35:33;9.90;40.80
37232;DHT22;23125;48.156;15.954;2023-02-28T13:39:56;9.90;40.50
37232;DHT22;23125;48.156;15.954;2023-02-28T13:47:44;9.80;40.70
37232;DHT22;23125;48.156;15.954;2023-02-28T13:53:48;9.70;40.90
37232;DHT22;23125;48.156;15.954;2023-02-28T13:56:27;9.70;41.00
37232;DHT22;23125;48.156;15.954;2023-02-28T13:59:13;9.70;41.10
37232;DHT22;23125;48.156;15.954;2023-02-28T14:02:17;9.70;41.10
37232;DHT22;23125;48.156;15.954;2023-02-28T14:05:12;9.60;41.20
37232;DHT22;23125;48.156;15.954;2023-02-28T14:07:47;9.60;41.10
37232;DHT22;23125;48.156;15.954;2023-02-28T14:11:02;9.60;41.20
37232;DHT22;23125;48.156;15.954;2023-02-28T14:13:39;9.50;41.30
37232;DHT22;23125;48.156;15.954;2023-02-28T14:16:12;9.50;41.20
37232;DHT22;23125;48.156;15.954;2023-02-28T14:18:51;9.50;41.10
37232;DHT22;23125;48.156;15.954;2023-02-28T14:21:21;9.50;41.10
37232;DHT22;23125;48.156;15.954;2023-02-28T14:29:29;9.40;41.20
37232;DHT22;23125;48.156;15.954;2023-02-28T14:32:21;9.40;41.30
37232;DHT22;23125;48.156;15.954;2023-02-28T14:37:38;9.30;41.30
37232;DHT22;23125;48.156;15.954;2023-02-28T14:40:16;9.20;41.30
37232;DHT22;23125;48.156;15.954;2023-02-28T14:43:00;9.10;41.10
37232;DHT22;23125;48.156;15.954;2023-02-28T14:45:30;9.10;41.40
37232;DHT22;23125;48.156;15.954;2023-02-28T14:47:57;9.00;41.30
37232;DHT22;23125;48.156;15.954;2023-02-28T14:50:35;9.00;41.40
37232;DHT22;23125;48.156;15.954;2023-02-28T14:53:03;8.90;41.50
37232;DHT22;23125;48.156;15.954;2023-02-28T14:55:31;8.90;41.50
37232;DHT22;23125;48.156;15.954;2023-02-28T14:58:01;8.90;41.60
37232;DHT22;23125;48.156;15.954;2023-02-28T15:00:47;8.80;41.60
37232;DHT22;23125;48.156;15.954;2023-02-28T15:05:57;8.70;41.70
37232;DHT22;23125;48.156;15.954;2023-02-28T15:08:25;8.70;41.80
37232;DHT22;23125;48.156;15.954;2023-02-28T15:13:20;8.70;41.90
37232;DHT22;23125;48.156;15.954;2023-02-28T15:15:56;8.60;41.80
37232;DHT22;23125;48.156;15.954;2023-02-28T15:21:18;8.50;41.90
37232;DHT22;23125;48.156;15.954;2023-02-28T15:23:55;8.60;42.00
37232;DHT22;23125;48.156;15.954;2023-02-28T15:26:27;8.50;42.10
37232;DHT22;23125;48.156;15.954;2023-02-28T15:29:05;8.50;42.20
37232;DHT22;23125;48.156;15.954;2023-02-28T15:31:41;8.40;42.20
37232;DHT22;23125;48.156;15.954;2023-02-28T15:34:20;8.50;42.30
37232;DHT22;23125;48.156;15.954;2023-02-28T15:36:47;8.40;42.20
37232;DHT22;23125;48.156;15.954;2023-02-28T15:39:22;8.40;42.20
37232;DHT22;23125;48.156;15.954;2023-02-28T15:41:49;8.40;42.30
37232;DHT22;23125;48.156;15.954;2023-02-28T15:44:27;8.30;42.40
37232;DHT22;23125;48.156;15.954;2023-02-28T15:47:20;8.30;42.40
37232;DHT22;23125;48.156;15.954;2023-02-28T15:50:01;8.30;42.40
37232;DHT22;23125;48.156;15.954;2023-02-28T15:55:27;8.30;42.40
37232;DHT22;23125;48.156;15.954;2023-02-28T15:57:57;8.30;42.40
37232;DHT22;23125;48.156;15.954;2023-02-28T16:00:27;8.20;42.50
37232;DHT22;23125;48.156;15.954;2023-02-28T16:02:54;8.20;42.50
37232;DHT22;23125;48.156;15.954;2023-02-28T16:05:24;8.20;42.60
37232;DHT22;23125;48.156;15.954;2023-02-28T16:07:58;8.10;42.70
37232;DHT22;23125;48.156;15.954;2023-02-28T16:10:26;8.20;42.70
37232;DHT22;23125;48.156;15.954;2023-02-28T16:12:55;8.10;42.70
37232;DHT22;23125;48.156;15.954;2023-02-28T16:15:24;8.10;42.70
37232;DHT22;23125;48.156;15.954;2023-02-28T16:17:52;8.10;42.70
37232;DHT22;23125;48.156;15.954;2023-02-28T16:20:28;8.10;42.80
37232;DHT22;23125;48.156;15.954;2023-02-28T16:22:54;8.00;42.70
37232;DHT22;23125;48.156;15.954;2023-02-28T16:25:24;8.00;42.70
37232;DHT22;23125;48.156;15.954;2023-02-28T16:27:53;8.00;42.80
37232;DHT22;23125;48.156;15.954;2023-02-28T16:30:25;8.00;43.00
37232;DHT22;23125;48.156;15.954;2023-02-28T16:32:54;7.90;43.00
37232;DHT22;23125;48.156;15.954;2023-02-28T16:35:21;7.90;43.00
37232;DHT22;23125;48.156;15.954;2023-02-28T16:37:47;7.90;43.00
37232;DHT22;23125;48.156;15.954;2023-02-28T16:40:18;7.90;43.10
37232;DHT22;23125;48.156;15.954;2023-02-28T16:42:48;7.90;43.10
37232;DHT22;23125;48.156;15.954;2023-02-28T16:45:20;7.90;43.20
37232;DHT22;23125;48.156;15.954;2023-02-28T16:47:47;7.90;43.10
37232;DHT22;23125;48.156;15.954;2023-02-28T16:50:21;7.90;43.10
37232;DHT22;23125;48.156;15.954;2023-02-28T16:52:47;7.90;43.10
37232;DHT22;23125;48.156;15.954;2023-02-28T16:55:15;7.80;43.00
37232;DHT22;23125;48.156;15.954;2023-02-28T16:57:42;7.80;43.00
37232;DHT22;23125;48.156;15.954;2023-02-28T17:00:12;7.70;43.00
37232;DHT22;23125;48.156;15.954;2023-02-28T17:02:39;7.70;43.00
37232;DHT22;23125;48.156;15.954;2023-02-28T17:05:06;7.70;42.90
37232;DHT22;23125;48.156;15.954;2023-02-28T17:07:32;7.60;43.00
37232;DHT22;23125;48.156;15.954;2023-02-28T17:09:58;7.60;43.60
37232;DHT22;23125;48.156;15.954;2023-02-28T17:12:24;7.50;43.00
37232;DHT22;23125;48.156;15.954;2023-02-28T17:14:50;7.40;43.00
37232;DHT22;23125;48.156;15.954;2023-02-28T17:17:20;7.40;43.30
37232;DHT22;23125;48.156;15.954;2023-02-28T17:19:46;7.30;43.20
37232;DHT22;23125;48.156;15.954;2023-02-28T17:22:13;7.20;43.10
37232;DHT22;23125;48.156;15.954;2023-02-28T17:24:39;7.10;43.20
37232;DHT22;23125;48.156;15.954;2023-02-28T17:27:05;7.10;43.30
37232;DHT22;23125;48.156;15.954;2023-02-28T17:29:33;7.00;43.30
37232;DHT22;23125;48.156;15.954;2023-02-28T17:31:59;7.00;43.40
37232;DHT22;23125;48.156;15.954;2023-02-28T17:34:24;6.90;43.40
37232;DHT22;23125;48.156;15.954;2023-02-28T17:36:51;6.80;43.50
37232;DHT22;23125;48.156;15.954;2023-02-28T17:39:19;6.80;43.60
37232;DHT22;23125;48.156;15.954;2023-02-28T17:41:52;6.70;43.60
37232;DHT22;23125;48.156;15.954;2023-02-28T17:44:19;6.60;43.60
37232;DHT22;23125;48.156;15.954;2023-02-28T17:46:45;6.60;43.80
37232;DHT22;23125;48.156;15.954;2023-02-28T17:49:12;6.50;43.80
37232;DHT22;23125;48.156;15.954;2023-02-28T17:51:39;6.40;43.80
37232;DHT22;23125;48.156;15.954;2023-02-28T17:54:04;6.40;43.90
37232;DHT22;23125;48.156;15.954;2023-02-28T17:56:31;6.30;44.00
37232;DHT22;23125;48.156;15.954;2023-02-28T17:58:57;6.30;44.00
37232;DHT22;23125;48.156;15.954;2023-02-28T18:01:24;6.20;44.10
37232;DHT22;23125;48.156;15.954;2023-02-28T18:03:52;6.10;44.30
37232;DHT22;23125;48.156;15.954;2023-02-28T18:08:58;6.00;44.40
37232;DHT22;23125;48.156;15.954;2023-02-28T18:11:24;6.00;44.50
37232;DHT22;23125;48.156;15.954;2023-02-28T18:13:52;5.90;44.50